Time;durP1;ratioP1;P1;durP2;ratioP2;P2;SDS_P1;SDS_P2;PMS_P1;PMS_P2;Temp;Humidity;BMP_temperature;BMP_pressure;BME280_temperature;BME280_humidity;BME280_pressure;Samples;Min_cycle;Max_cycle;Signal;HPM_P1;HPM_P2
2023/05/03 00:01:19;;;;;;;;;;;;;;;;;;5073227;28;19990;-61
2023/05/03 00:03:44;;;;;;;;;;;;;;;;;;5073335;28;19916;-62
2023/05/03 00:06:10;;;;;;;;;;;;;;;;;;5073089;28;19926;-63
2023/05/03 00:08:35;;;;;;;;;;;;;;;;;;5072511;28;19966;-63
2023/05/03 00:11:00;;;;;;;;;;;;;;;;;;5067770;28;19924;-61
2023/05/03 00:13:26;;;;;;;;;;;;;;;;;;5069613;28;19920;-61
2023/05/03 00:15:51;;;;;;;;;;;;;;;;;;5068966;28;20038;-62
2023/05/03 00:18:17;;;;;;;;;;;;;;;;;;5070418;28;19923;-62
2023/05/03 00:20:42;;;;;;;;;;;;;;;;;;5056078;28;19921;-64
2023/05/03 00:23:07;;;;;;;;;;;;;;;;;;5068938;28;19925;-62
2023/05/03 00:25:33;;;;;;;;;;;;;;;;;;5056517;28;19973;-62
2023/05/03 00:27:58;;;;;;;;;;;;;;;;;;5054006;28;19963;-61
2023/05/03 00:30:23;;;;;;;;;;;;;;;;;;5052802;28;20310;-62
2023/05/03 00:32:50;;;;;;;;;;;;;;;;;;5036045;28;20003;-62
2023/05/03 00:35:15;;;;;;;;;;;;;;;;;;5054145;28;19916;-62
2023/05/03 00:37:41;;;;;;;;;;;;;;;;;;5067418;28;19923;-62
2023/05/03 00:40:06;;;;;;;;;;;;;;;;;;5052329;28;19926;-62
2023/05/03 00:42:31;;;;;;;;;;;;;;;;;;5066745;28;19931;-62
2023/05/03 00:44:57;;;;;;;;;;;;;;;;;;5052271;28;19923;-61
2023/05/03 00:47:22;;;;;;;;;;;;;;;;;;5040569;28;19970;-62
2023/05/03 00:49:47;;;;;;;;;;;;;;;;;;5056749;28;20308;-61
2023/05/03 00:52:13;;;;;;;;;;;;;;;;;;5065284;28;19966;-61
2023/05/03 00:54:38;;;;;;;;;;;;;;;;;;5070468;28;19916;-61
2023/05/03 00:57:03;;;;;;;;;;;;;;;;;;5056720;28;20310;-61
2023/05/03 00:59:29;;;;;;;;;;;;;;;;;;5054908;28;19928;-62
2023/05/03 01:01:54;;;;;;;;;;;;;;;;;;5055406;28;19936;-62
2023/05/03 01:04:20;;;;;;;;;;;;;;;;;;5055151;28;20383;-61
2023/05/03 01:06:45;;;;;;;;;;;;;;;;;;5055458;28;19982;-60
2023/05/03 01:09:11;;;;;;;;;;;;;;;;;;5056347;28;19916;-62
2023/05/03 01:11:37;;;;;;;;;;;;;;;;;;5062861;28;19932;-62
2023/05/03 01:14:03;;;;;;;;;;;;;;;;;;5073043;28;20393;-62
2023/05/03 01:16:28;;;;;;;;;;;;;;;;;;5073298;28;19927;-62
2023/05/03 01:18:53;;;;;;;;;;;;;;;;;;5071819;28;19916;-62
2023/05/03 01:21:19;;;;;;;;;;;;;;;;;;5073090;28;20305;-62
2023/05/03 01:23:44;;;;;;;;;;;;;;;;;;5071678;28;19917;-62
2023/05/03 01:26:09;;;;;;;;;;;;;;;;;;5071501;28;19970;-61
2023/05/03 01:28:35;;;;;;;;;;;;;;;;;;5071946;28;20003;-61
2023/05/03 01:31:00;;;;;;;;;;;;;;;;;;5072851;28;19920;-60
2023/05/03 01:33:26;;;;;;;;;;;;;;;;;;5071505;28;19964;-62
2023/05/03 01:35:51;;;;;;;;;;;;;;;;;;5067770;28;20294;-60
2023/05/03 01:38:16;;;;;;;;;;;;;;;;;;5068516;28;19917;-60
2023/05/03 01:40:42;;;;;;;;;;;;;;;;;;5067195;28;19924;-61
2023/05/03 01:43:07;;;;;;;;;;;;;;;;;;5066241;28;20310;-62
2023/05/03 01:45:32;;;;;;;;;;;;;;;;;;5059942;28;19920;-61
2023/05/03 01:47:58;;;;;;;;;;;;;;;;;;5054887;28;19963;-61
2023/05/03 01:50:23;;;;;;;;;;;;;;;;;;5054417;28;20316;-63
2023/05/03 01:52:51;;;;;;;;;;;;;;;;;;5054287;28;19962;-62
2023/05/03 01:55:16;;;;;;;;;;;;;;;;;;5055368;28;19916;-62
2023/05/03 01:57:42;;;;;;;;;;;;;;;;;;5057573;28;19947;-63
2023/05/03 02:00:08;;;;;;;;;;;;;;;;;;5071135;28;20395;-62
2023/05/03 02:02:37;;;;;;;;;;;;;;;;;;5072120;28;19925;-62
2023/05/03 02:05:03;;;;;;;;;;;;;;;;;;5071999;28;19923;-63
2023/05/03 02:07:28;;;;;;;;;;;;;;;;;;5070899;28;19917;-62
2023/05/03 02:09:54;;;;;;;;;;;;;;;;;;5071915;28;19917;-62
2023/05/03 02:12:20;;;;;;;;;;;;;;;;;;5072452;28;19927;-61
2023/05/03 02:14:45;;;;;;;;;;;;;;;;;;5070812;28;20019;-63
2023/05/03 02:17:11;;;;;;;;;;;;;;;;;;5072481;28;19916;-62
2023/05/03 02:19:36;;;;;;;;;;;;;;;;;;5072301;28;19927;-60
2023/05/03 02:22:01;;;;;;;;;;;;;;;;;;5070664;28;19928;-62
2023/05/03 02:24:28;;;;;;;;;;;;;;;;;;5070743;28;19959;-62
2023/05/03 02:26:53;;;;;;;;;;;;;;;;;;5072270;28;19927;-60
2023/05/03 02:29:19;;;;;;;;;;;;;;;;;;5070574;28;20297;-62
2023/05/03 02:31:44;;;;;;;;;;;;;;;;;;5070685;28;20296;-62
2023/05/03 02:34:10;;;;;;;;;;;;;;;;;;5069800;28;19969;-63
2023/05/03 02:36:36;;;;;;;;;;;;;;;;;;5055076;28;19973;-62
2023/05/03 02:39:02;;;;;;;;;;;;;;;;;;5052934;28;20306;-62
2023/05/03 02:41:27;;;;;;;;;;;;;;;;;;5053372;28;19995;-62
2023/05/03 02:43:53;;;;;;;;;;;;;;;;;;5053528;28;20422;-62
2023/05/03 02:46:18;;;;;;;;;;;;;;;;;;5051955;28;20393;-61
2023/05/03 02:48:43;;;;;;;;;;;;;;;;;;5051442;28;19919;-63
2023/05/03 02:51:09;;;;;;;;;;;;;;;;;;5067286;28;20385;-62
2023/05/03 02:53:35;;;;;;;;;;;;;;;;;;5070416;28;19924;-62
2023/05/03 02:56:02;;;;;;;;;;;;;;;;;;5070201;28;19925;-62
2023/05/03 02:58:27;;;;;;;;;;;;;;;;;;5074035;28;20344;-63
2023/05/03 03:00:52;;;;;;;;;;;;;;;;;;5074424;28;19920;-61
2023/05/03 03:03:18;;;;;;;;;;;;;;;;;;5057703;28;20392;-62
2023/05/03 03:05:43;;;;;;;;;;;;;;;;;;5075516;28;20282;-63
2023/05/03 03:08:09;;;;;;;;;;;;;;;;;;5074229;28;20370;-62
2023/05/03 03:10:35;;;;;;;;;;;;;;;;;;5075527;28;19920;-61
2023/05/03 03:13:01;;;;;;;;;;;;;;;;;;5074062;28;20019;-62
2023/05/03 03:15:32;;;;;;;;;;;;;;;;;;5064278;28;19921;-62
2023/05/03 03:17:58;;;;;;;;;;;;;;;;;;5057113;28;19962;-62
2023/05/03 03:20:24;;;;;;;;;;;;;;;;;;5055883;28;19943;-62
2023/05/03 03:22:50;;;;;;;;;;;;;;;;;;5057051;28;20423;-61
2023/05/03 03:25:15;;;;;;;;;;;;;;;;;;5048098;28;20398;-62
2023/05/03 03:27:41;;;;;;;;;;;;;;;;;;5058019;28;19917;-63
2023/05/03 03:30:07;;;;;;;;;;;;;;;;;;5057098;28;19921;-61
2023/05/03 03:32:34;;;;;;;;;;;;;;;;;;5056823;28;19917;-62
2023/05/03 03:35:02;;;;;;;;;;;;;;;;;;5056773;28;19968;-62
2023/05/03 03:37:29;;;;;;;;;;;;;;;;;;5055771;28;19917;-63
2023/05/03 03:39:55;;;;;;;;;;;;;;;;;;5056504;28;19916;-62
2023/05/03 03:42:22;;;;;;;;;;;;;;;;;;5055726;28;19928;-61
2023/05/03 03:44:48;;;;;;;;;;;;;;;;;;5055163;28;19931;-62
2023/05/03 03:47:13;;;;;;;;;;;;;;;;;;5058144;28;19920;-62
2023/05/03 03:49:39;;;;;;;;;;;;;;;;;;5064876;28;19916;-63
2023/05/03 03:52:05;;;;;;;;;;;;;;;;;;5073488;28;19956;-61
2023/05/03 03:54:31;;;;;;;;;;;;;;;;;;5073374;28;19917;-61
2023/05/03 03:56:57;;;;;;;;;;;;;;;;;;5073470;28;20279;-61
2023/05/03 03:59:22;;;;;;;;;;;;;;;;;;5073319;28;20023;-62
2023/05/03 04:01:47;;;;;;;;;;;;;;;;;;5073488;28;20034;-62
2023/05/03 04:04:13;;;;;;;;;;;;;;;;;;5069581;28;20283;-62
2023/05/03 04:06:39;;;;;;;;;;;;;;;;;;5069488;28;19920;-61
2023/05/03 04:09:09;;;;;;;;;;;;;;;;;;5069435;28;19916;-62
2023/05/03 04:11:34;;;;;;;;;;;;;;;;;;5068618;28;20275;-62
2023/05/03 04:14:01;;;;;;;;;;;;;;;;;;5068085;28;20010;-63
2023/05/03 04:16:28;;;;;;;;;;;;;;;;;;5069186;28;20393;-62
2023/05/03 04:18:53;;;;;;;;;;;;;;;;;;5056344;28;19952;-63
2023/05/03 04:21:18;;;;;;;;;;;;;;;;;;5061479;28;20002;-61
2023/05/03 04:23:45;;;;;;;;;;;;;;;;;;5072454;28;19925;-62
2023/05/03 04:26:12;;;;;;;;;;;;;;;;;;5072635;28;19920;-62
2023/05/03 04:28:38;;;;;;;;;;;;;;;;;;5074309;28;20026;-62
2023/05/03 04:31:04;;;;;;;;;;;;;;;;;;5073977;28;20303;-62
2023/05/03 04:33:31;;;;;;;;;;;;;;;;;;5057544;28;19971;-61
2023/05/03 04:36:01;;;;;;;;;;;;;;;;;;5054646;28;19964;-61
2023/05/03 04:38:27;;;;;;;;;;;;;;;;;;5056616;28;20006;-61
2023/05/03 04:40:53;;;;;;;;;;;;;;;;;;5054566;28;20015;-62
2023/05/03 04:43:18;;;;;;;;;;;;;;;;;;5054073;28;20354;-61
2023/05/03 04:45:45;;;;;;;;;;;;;;;;;;5052948;28;19921;-61
2023/05/03 04:48:17;;;;;;;;;;;;;;;;;;5071614;28;20010;-62
2023/05/03 04:50:42;;;;;;;;;;;;;;;;;;5065322;28;20003;-61
2023/05/03 04:53:09;;;;;;;;;;;;;;;;;;5055122;28;19920;-62
2023/05/03 04:55:38;;;;;;;;;;;;;;;;;;5055504;28;20374;-61
2023/05/03 04:58:04;;;;;;;;;;;;;;;;;;5055094;28;19963;-63
2023/05/03 05:00:29;;;;;;;;;;;;;;;;;;5055200;28;19921;-62
2023/05/03 05:03:01;;;;;;;;;;;;;;;;;;5049028;28;20019;-60
2023/05/03 05:05:28;;;;;;;;;;;;;;;;;;5054043;28;20298;-61
2023/05/03 05:07:55;;;;;;;;;;;;;;;;;;5053813;28;20357;-63
2023/05/03 05:10:20;;;;;;;;;;;;;;;;;;5055887;28;19920;-62
2023/05/03 05:12:46;;;;;;;;;;;;;;;;;;5053797;28;19921;-61
2023/05/03 05:15:11;;;;;;;;;;;;;;;;;;5057268;28;20086;-71
2023/05/03 05:17:37;;;;;;;;;;;;;;;;;;5060735;28;19964;-62
2023/05/03 05:20:06;;;;;;;;;;;;;;;;;;5067486;28;19916;-61
2023/05/03 05:22:32;;;;;;;;;;;;;;;;;;5056178;28;19925;-60
2023/05/03 05:24:58;;;;;;;;;;;;;;;;;;5054056;28;19917;-61
2023/05/03 05:27:24;;;;;;;;;;;;;;;;;;5053647;28;19920;-61
2023/05/03 05:29:51;;;;;;;;;;;;;;;;;;5053122;28;19916;-64
2023/05/03 05:32:17;;;;;;;;;;;;;;;;;;5053910;28;20001;-62
2023/05/03 05:34:44;;;;;;;;;;;;;;;;;;5051458;28;19968;-62
2023/05/03 05:37:10;;;;;;;;;;;;;;;;;;5063989;28;19958;-61
2023/05/03 05:39:36;;;;;;;;;;;;;;;;;;5068825;28;19916;-63
2023/05/03 05:42:02;;;;;;;;;;;;;;;;;;5071152;28;19935;-62
2023/05/03 05:44:27;;;;;;;;;;;;;;;;;;5070602;28;19928;-62
2023/05/03 05:46:53;;;;;;;;;;;;;;;;;;5052738;28;19926;-62
2023/05/03 05:49:18;;;;;;;;;;;;;;;;;;5035693;28;19917;-64
2023/05/03 05:51:44;;;;;;;;;;;;;;;;;;5069288;28;20389;-63
2023/05/03 05:54:09;;;;;;;;;;;;;;;;;;5083816;28;20385;-63
2023/05/03 05:56:35;;;;;;;;;;;;;;;;;;5091488;28;19923;-62
2023/05/03 05:59:03;;;;;;;;;;;;;;;;;;5083210;28;19955;-63
2023/05/03 06:01:30;;;;;;;;;;;;;;;;;;5035578;28;20363;-63
2023/05/03 06:03:56;;;;;;;;;;;;;;;;;;5060499;28;20099;-64
2023/05/03 06:06:21;;;;;;;;;;;;;;;;;;5050858;28;20041;-63
2023/05/03 06:08:48;;;;;;;;;;;;;;;;;;5051037;28;19958;-63
2023/05/03 06:11:14;;;;;;;;;;;;;;;;;;5054499;28;19919;-62
2023/05/03 06:13:40;;;;;;;;;;;;;;;;;;5054859;28;19962;-64
2023/05/03 06:16:07;;;;;;;;;;;;;;;;;;5065776;28;19925;-64
2023/05/03 06:18:32;;;;;;;;;;;;;;;;;;5054839;28;19923;-64
2023/05/03 06:20:58;;;;;;;;;;;;;;;;;;5050215;28;19963;-63
2023/05/03 06:23:24;;;;;;;;;;;;;;;;;;5064329;28;19924;-63
2023/05/03 06:25:50;;;;;;;;;;;;;;;;;;5042884;28;19954;-63
2023/05/03 06:28:16;;;;;;;;;;;;;;;;;;5064328;28;19959;-63
2023/05/03 06:30:42;;;;;;;;;;;;;;;;;;5054187;28;19920;-63
2023/05/03 06:33:11;;;;;;;;;;;;;;;;;;5050704;28;20361;-62
2023/05/03 06:35:36;;;;;;;;;;;;;;;;;;5061452;28;19929;-62
2023/05/03 06:38:01;;;;;;;;;;;;;;;;;;5051231;28;20349;-63
2023/05/03 06:40:27;;;;;;;;;;;;;;;;;;5054665;28;20284;-63
2023/05/03 06:42:54;;;;;;;;;;;;;;;;;;5066855;28;20161;-63
2023/05/03 06:45:31;;;;;;;;;;;;;;;;;;5054125;28;19917;-64
2023/05/03 06:47:57;;;;;;;;;;;;;;;;;;5050150;28;20012;-64
2023/05/03 06:50:23;;;;;;;;;;;;;;;;;;5049958;28;19921;-63
2023/05/03 06:52:48;;;;;;;;;;;;;;;;;;5058751;28;19920;-64
2023/05/03 06:55:13;;;;;;;;;;;;;;;;;;5053793;28;19924;-63
2023/05/03 06:57:39;;;;;;;;;;;;;;;;;;5056964;28;19921;-63
2023/05/03 07:00:06;;;;;;;;;;;;;;;;;;5066565;28;19917;-65
2023/05/03 07:02:31;;;;;;;;;;;;;;;;;;5063246;28;19955;-63
2023/05/03 07:04:56;;;;;;;;;;;;;;;;;;5065447;28;19921;-65
2023/05/03 07:07:22;;;;;;;;;;;;;;;;;;5064656;28;20475;-63
2023/05/03 07:09:47;;;;;;;;;;;;;;;;;;5063707;28;20451;-63
2023/05/03 07:12:12;;;;;;;;;;;;;;;;;;5051150;28;19917;-63
2023/05/03 07:14:39;;;;;;;;;;;;;;;;;;5052700;28;19927;-62
2023/05/03 07:17:04;;;;;;;;;;;;;;;;;;5052512;28;19917;-64
2023/05/03 07:19:29;;;;;;;;;;;;;;;;;;5065175;28;19927;-64
2023/05/03 07:21:55;;;;;;;;;;;;;;;;;;5063192;28;19924;-63
2023/05/03 07:24:20;;;;;;;;;;;;;;;;;;5052778;28;19925;-62
2023/05/03 07:26:46;;;;;;;;;;;;;;;;;;5052048;28;19939;-64
2023/05/03 07:29:11;;;;;;;;;;;;;;;;;;5051553;28;19925;-63
2023/05/03 07:31:36;;;;;;;;;;;;;;;;;;5052295;28;19932;-63
2023/05/03 07:34:02;;;;;;;;;;;;;;;;;;5057284;28;19921;-62
2023/05/03 07:36:27;;;;;;;;;;;;;;;;;;5051753;28;19923;-61
2023/05/03 07:38:53;;;;;;;;;;;;;;;;;;5061334;28;19928;-64
2023/05/03 07:41:18;;;;;;;;;;;;;;;;;;5062938;28;20011;-62
2023/05/03 07:43:43;;;;;;;;;;;;;;;;;;5065519;28;19935;-64
2023/05/03 07:46:09;;;;;;;;;;;;;;;;;;5067983;28;19994;-63
2023/05/03 07:48:34;;;;;;;;;;;;;;;;;;5070937;28;19921;-65
2023/05/03 07:51:00;;;;;;;;;;;;;;;;;;5066549;28;20353;-62
2023/05/03 07:53:25;;;;;;;;;;;;;;;;;;5060783;28;20282;-62
2023/05/03 07:55:51;;;;;;;;;;;;;;;;;;5063910;28;19923;-63
2023/05/03 07:58:16;;;;;;;;;;;;;;;;;;5067589;28;20361;-64
2023/05/03 08:00:41;;;;;;;;;;;;;;;;;;5060499;28;19986;-64
2023/05/03 08:03:07;;;;;;;;;;;;;;;;;;5091318;28;19932;-65
2023/05/03 08:05:34;;;;;;;;;;;;;;;;;;5087988;28;19916;-64
2023/05/03 08:08:00;;;;;;;;;;;;;;;;;;5073643;28;19920;-65
2023/05/03 08:10:25;;;;;;;;;;;;;;;;;;5072466;28;19985;-65
2023/05/03 08:12:50;;;;;;;;;;;;;;;;;;5072137;28;20234;-63
2023/05/03 08:15:16;;;;;;;;;;;;;;;;;;5071701;28;20148;-64
2023/05/03 08:17:41;;;;;;;;;;;;;;;;;;5078365;28;19927;-64
2023/05/03 08:20:07;;;;;;;;;;;;;;;;;;5076359;28;19916;-64
2023/05/03 08:22:32;;;;;;;;;;;;;;;;;;5071962;28;19929;-64
2023/05/03 08:24:58;;;;;;;;;;;;;;;;;;5066689;28;20289;-63
2023/05/03 08:27:27;;;;;;;;;;;;;;;;;;5062316;28;19923;-63
2023/05/03 08:29:52;;;;;;;;;;;;;;;;;;5062011;28;19928;-65
2023/05/03 08:32:19;;;;;;;;;;;;;;;;;;5058247;28;20362;-64
2023/05/03 08:34:45;;;;;;;;;;;;;;;;;;5054417;28;20583;-65
2023/05/03 08:37:10;;;;;;;;;;;;;;;;;;5053029;28;19956;-62
2023/05/03 08:39:35;;;;;;;;;;;;;;;;;;5053342;28;19968;-63
2023/05/03 08:42:02;;;;;;;;;;;;;;;;;;5052697;28;20313;-65
2023/05/03 08:44:27;;;;;;;;;;;;;;;;;;5052488;28;19933;-65
2023/05/03 08:46:53;;;;;;;;;;;;;;;;;;5051461;28;19999;-65
2023/05/03 08:49:18;;;;;;;;;;;;;;;;;;5053466;28;19927;-65
2023/05/03 08:51:47;;;;;;;;;;;;;;;;;;5053359;28;19923;-65
2023/05/03 08:54:13;;;;;;;;;;;;;;;;;;5053088;28;20509;-66
2023/05/03 08:56:38;;;;;;;;;;;;;;;;;;5051055;28;19921;-64
2023/05/03 08:59:07;;;;;;;;;;;;;;;;;;5052993;28;20295;-65
2023/05/03 09:01:33;;;;;;;;;;;;;;;;;;5052017;28;19971;-63
2023/05/03 09:03:58;;;;;;;;;;;;;;;;;;5053153;28;19959;-66
2023/05/03 09:06:26;;;;;;;;;;;;;;;;;;5053282;28;19917;-64
2023/05/03 09:08:51;;;;;;;;;;;;;;;;;;5051854;28;19921;-65
2023/05/03 09:11:17;;;;;;;;;;;;;;;;;;5052053;28;19924;-65
2023/05/03 09:13:42;;;;;;;;;;;;;;;;;;5053134;28;19921;-66
2023/05/03 09:16:07;;;;;;;;;;;;;;;;;;5051272;28;20027;-64
2023/05/03 09:18:33;;;;;;;;;;;;;;;;;;5052574;28;19921;-64
2023/05/03 09:20:58;;;;;;;;;;;;;;;;;;5051191;28;19917;-63
2023/05/03 09:23:24;;;;;;;;;;;;;;;;;;5052868;28;19960;-64
2023/05/03 09:25:52;;;;;;;;;;;;;;;;;;5051692;28;19966;-65
2023/05/03 09:28:18;;;;;;;;;;;;;;;;;;5051142;28;19921;-65
2023/05/03 09:30:44;;;;;;;;;;;;;;;;;;5052195;28;19912;-64
2023/05/03 09:33:10;;;;;;;;;;;;;;;;;;5051326;28;19920;-63
2023/05/03 09:35:35;;;;;;;;;;;;;;;;;;5049372;28;20397;-64
2023/05/03 09:38:00;;;;;;;;;;;;;;;;;;5050261;28;19921;-63
2023/05/03 09:40:26;;;;;;;;;;;;;;;;;;5051904;28;20003;-64
2023/05/03 09:42:52;;;;;;;;;;;;;;;;;;5050687;28;20259;-64
2023/05/03 09:45:17;;;;;;;;;;;;;;;;;;5052126;28;20344;-65
2023/05/03 09:47:42;;;;;;;;;;;;;;;;;;5050881;28;20024;-65
2023/05/03 09:50:07;;;;;;;;;;;;;;;;;;5050747;28;19925;-64
2023/05/03 09:52:33;;;;;;;;;;;;;;;;;;5065333;28;19928;-64
2023/05/03 09:54:58;;;;;;;;;;;;;;;;;;5068134;28;19921;-63
2023/05/03 09:57:23;;;;;;;;;;;;;;;;;;5052979;28;19946;-65
2023/05/03 09:59:49;;;;;;;;;;;;;;;;;;5065364;28;19920;-66
2023/05/03 10:02:15;;;;;;;;;;;;;;;;;;5087963;28;19977;-64
2023/05/03 10:04:40;;;;;;;;;;;;;;;;;;5071034;28;20404;-65
2023/05/03 10:07:05;;;;;;;;;;;;;;;;;;5070594;28;20023;-65
2023/05/03 10:09:31;;;;;;;;;;;;;;;;;;5069548;28;20313;-64
2023/05/03 10:11:57;;;;;;;;;;;;;;;;;;5071329;28;20313;-65
2023/05/03 10:14:23;;;;;;;;;;;;;;;;;;5064923;28;19936;-65
2023/05/03 10:16:48;;;;;;;;;;;;;;;;;;5067246;28;19916;-64
2023/05/03 10:19:13;;;;;;;;;;;;;;;;;;5054925;28;19950;-64
2023/05/03 10:21:39;;;;;;;;;;;;;;;;;;5053689;28;19967;-64
2023/05/03 10:24:04;;;;;;;;;;;;;;;;;;5053067;28;19921;-65
2023/05/03 10:26:30;;;;;;;;;;;;;;;;;;5053044;28;19949;-64
2023/05/03 10:28:55;;;;;;;;;;;;;;;;;;5053520;28;19921;-64
2023/05/03 10:31:21;;;;;;;;;;;;;;;;;;5051511;28;20302;-64
2023/05/03 10:33:46;;;;;;;;;;;;;;;;;;5078876;28;19921;-66
2023/05/03 10:36:11;;;;;;;;;;;;;;;;;;5053328;28;19916;-65
2023/05/03 10:38:37;;;;;;;;;;;;;;;;;;5062358;28;19924;-64
2023/05/03 10:41:05;;;;;;;;;;;;;;;;;;5035665;28;19951;-63
2023/05/03 10:43:30;;;;;;;;;;;;;;;;;;5052552;28;19929;-64
2023/05/03 10:45:56;;;;;;;;;;;;;;;;;;5051740;28;19923;-64
2023/05/03 10:48:21;;;;;;;;;;;;;;;;;;5052860;28;19921;-65
2023/05/03 10:50:47;;;;;;;;;;;;;;;;;;5078672;28;19920;-65
2023/05/03 10:53:12;;;;;;;;;;;;;;;;;;5065930;28;19921;-62
2023/05/03 10:55:38;;;;;;;;;;;;;;;;;;5067012;28;20232;-65
2023/05/03 10:58:03;;;;;;;;;;;;;;;;;;5065229;28;19927;-64
2023/05/03 11:00:29;;;;;;;;;;;;;;;;;;5067639;28;19922;-64
2023/05/03 11:02:55;;;;;;;;;;;;;;;;;;5065560;28;19971;-66
2023/05/03 11:05:20;;;;;;;;;;;;;;;;;;5078061;28;19954;-65
2023/05/03 11:07:46;;;;;;;;;;;;;;;;;;5084879;28;19921;-65
2023/05/03 11:10:11;;;;;;;;;;;;;;;;;;5065440;28;20327;-66
2023/05/03 11:12:36;;;;;;;;;;;;;;;;;;5049583;28;19974;-66
2023/05/03 11:15:02;;;;;;;;;;;;;;;;;;5063015;28;20332;-64
2023/05/03 11:17:28;;;;;;;;;;;;;;;;;;5054645;28;19928;-66
2023/05/03 11:19:53;;;;;;;;;;;;;;;;;;5051974;28;20258;-64
2023/05/03 11:22:19;;;;;;;;;;;;;;;;;;5057944;28;20292;-65
2023/05/03 11:24:44;;;;;;;;;;;;;;;;;;5083060;28;20282;-66
2023/05/03 11:27:10;;;;;;;;;;;;;;;;;;5091482;28;20027;-66
2023/05/03 11:29:36;;;;;;;;;;;;;;;;;;5072167;28;19921;-67
2023/05/03 11:32:01;;;;;;;;;;;;;;;;;;5074295;28;19924;-65
2023/05/03 11:34:27;;;;;;;;;;;;;;;;;;5071953;28;19925;-66
2023/05/03 11:36:52;;;;;;;;;;;;;;;;;;5070962;28;19917;-67
2023/05/03 11:39:18;;;;;;;;;;;;;;;;;;5069309;28;20293;-66
2023/05/03 11:41:43;;;;;;;;;;;;;;;;;;5061414;28;19931;-67
2023/05/03 11:44:08;;;;;;;;;;;;;;;;;;5072814;28;19935;-66
2023/05/03 11:46:34;;;;;;;;;;;;;;;;;;5069807;28;19936;-66
2023/05/03 11:48:59;;;;;;;;;;;;;;;;;;5067973;28;20010;-66
2023/05/03 11:51:26;;;;;;;;;;;;;;;;;;5059307;28;19917;-67
2023/05/03 11:53:51;;;;;;;;;;;;;;;;;;5054798;28;19956;-70
2023/05/03 11:56:21;;;;;;;;;;;;;;;;;;5067951;28;19921;-64
2023/05/03 11:58:46;;;;;;;;;;;;;;;;;;5067493;28;20368;-65
2023/05/03 12:01:12;;;;;;;;;;;;;;;;;;5071250;28;20019;-64
2023/05/03 12:03:37;;;;;;;;;;;;;;;;;;5080262;28;19975;-65
2023/05/03 12:06:03;;;;;;;;;;;;;;;;;;5092663;28;19962;-67
2023/05/03 12:08:28;;;;;;;;;;;;;;;;;;5092007;28;20026;-66
2023/05/03 12:10:54;;;;;;;;;;;;;;;;;;5086901;28;20263;-66
2023/05/03 12:13:19;;;;;;;;;;;;;;;;;;5045112;28;19920;-65
2023/05/03 12:15:45;;;;;;;;;;;;;;;;;;5067429;28;19928;-65
2023/05/03 12:18:10;;;;;;;;;;;;;;;;;;5058690;28;19936;-64
2023/05/03 12:20:35;;;;;;;;;;;;;;;;;;5044161;28;19918;-64
2023/05/03 12:23:01;;;;;;;;;;;;;;;;;;5066540;28;20417;-65
2023/05/03 12:25:26;;;;;;;;;;;;;;;;;;5059369;28;20310;-65
2023/05/03 12:27:52;;;;;;;;;;;;;;;;;;5089066;28;19920;-65
2023/05/03 12:30:17;;;;;;;;;;;;;;;;;;5067033;28;19917;-63
2023/05/03 12:32:42;;;;;;;;;;;;;;;;;;5066133;28;20305;-65
2023/05/03 12:35:08;;;;;;;;;;;;;;;;;;5072076;28;19922;-65
2023/05/03 12:37:33;;;;;;;;;;;;;;;;;;5057171;28;19920;-65
2023/05/03 12:39:58;;;;;;;;;;;;;;;;;;5051018;28;19917;-65
2023/05/03 12:42:25;;;;;;;;;;;;;;;;;;5050919;28;20014;-64
2023/05/03 12:44:50;;;;;;;;;;;;;;;;;;5052171;28;19933;-66
2023/05/03 12:47:15;;;;;;;;;;;;;;;;;;5055513;28;20282;-65
2023/05/03 12:49:41;;;;;;;;;;;;;;;;;;5058135;28;19990;-66
2023/05/03 12:52:06;;;;;;;;;;;;;;;;;;5079637;28;19916;-64
2023/05/03 12:54:31;;;;;;;;;;;;;;;;;;5054495;28;20011;-64
2023/05/03 12:56:58;;;;;;;;;;;;;;;;;;5082143;28;19920;-65
2023/05/03 12:59:24;;;;;;;;;;;;;;;;;;5078825;28;19921;-65
2023/05/03 13:01:49;;;;;;;;;;;;;;;;;;5067933;28;20447;-64
2023/05/03 13:04:15;;;;;;;;;;;;;;;;;;5063246;28;19927;-64
2023/05/03 13:06:41;;;;;;;;;;;;;;;;;;5064968;28;19916;-65
2023/05/03 13:09:06;;;;;;;;;;;;;;;;;;5069704;28;19947;-64
2023/05/03 13:11:33;;;;;;;;;;;;;;;;;;5061657;28;20285;-63
2023/05/03 13:13:58;;;;;;;;;;;;;;;;;;5059948;28;19929;-66
2023/05/03 13:16:24;;;;;;;;;;;;;;;;;;5040545;28;19917;-66
2023/05/03 13:18:54;;;;;;;;;;;;;;;;;;5063720;28;20317;-65
2023/05/03 13:21:19;;;;;;;;;;;;;;;;;;5065679;28;20366;-66
2023/05/03 13:23:44;;;;;;;;;;;;;;;;;;5059132;28;19920;-65
2023/05/03 13:26:10;;;;;;;;;;;;;;;;;;5067358;28;19940;-65
2023/05/03 13:28:35;;;;;;;;;;;;;;;;;;5052323;28;20015;-65
2023/05/03 13:31:01;;;;;;;;;;;;;;;;;;5053191;28;19936;-65
2023/05/03 13:33:27;;;;;;;;;;;;;;;;;;5062241;28;20237;-65
2023/05/03 13:35:53;;;;;;;;;;;;;;;;;;5063545;28;19917;-66
2023/05/03 13:38:18;;;;;;;;;;;;;;;;;;5058265;28;19921;-65
2023/05/03 13:40:44;;;;;;;;;;;;;;;;;;5067054;28;20297;-66
2023/05/03 13:43:10;;;;;;;;;;;;;;;;;;5071687;28;20334;-65
2023/05/03 13:45:35;;;;;;;;;;;;;;;;;;5053543;28;19962;-67
2023/05/03 13:48:00;;;;;;;;;;;;;;;;;;5075490;28;19973;-67
2023/05/03 13:50:26;;;;;;;;;;;;;;;;;;5088783;28;19916;-66
2023/05/03 13:52:51;;;;;;;;;;;;;;;;;;5088324;28;19973;-64
2023/05/03 13:55:16;;;;;;;;;;;;;;;;;;5049778;28;19923;-66
2023/05/03 13:57:42;;;;;;;;;;;;;;;;;;5047082;28;19928;-66
2023/05/03 14:00:09;;;;;;;;;;;;;;;;;;5049590;28;19928;-66
2023/05/03 14:02:34;;;;;;;;;;;;;;;;;;5048348;28;19933;-66
2023/05/03 14:04:59;;;;;;;;;;;;;;;;;;5050838;28;19962;-66
2023/05/03 14:07:25;;;;;;;;;;;;;;;;;;5049558;28;20007;-65
2023/05/03 14:09:50;;;;;;;;;;;;;;;;;;5050631;28;19951;-65
2023/05/03 14:12:15;;;;;;;;;;;;;;;;;;5050125;28;19917;-67
2023/05/03 14:14:41;;;;;;;;;;;;;;;;;;5049220;28;19921;-65
2023/05/03 14:17:07;;;;;;;;;;;;;;;;;;5052368;28;20015;-66
2023/05/03 14:19:33;;;;;;;;;;;;;;;;;;5065861;28;19927;-65
2023/05/03 14:21:58;;;;;;;;;;;;;;;;;;5057289;28;19924;-67
2023/05/03 14:24:23;;;;;;;;;;;;;;;;;;5051885;28;20322;-64
2023/05/03 14:26:50;;;;;;;;;;;;;;;;;;5057773;28;19970;-66
2023/05/03 14:29:15;;;;;;;;;;;;;;;;;;5051482;28;20405;-66
2023/05/03 14:31:40;;;;;;;;;;;;;;;;;;5055641;28;19916;-66
2023/05/03 14:34:06;;;;;;;;;;;;;;;;;;5059528;28;20337;-66
2023/05/03 14:36:34;;;;;;;;;;;;;;;;;;5050314;28;20337;-66
2023/05/03 14:39:00;;;;;;;;;;;;;;;;;;5051093;28;19924;-66
2023/05/03 14:41:25;;;;;;;;;;;;;;;;;;5047697;28;20263;-66
2023/05/03 14:43:51;;;;;;;;;;;;;;;;;;5049696;28;19935;-65
2023/05/03 14:46:16;;;;;;;;;;;;;;;;;;5049779;28;19917;-66
2023/05/03 14:48:42;;;;;;;;;;;;;;;;;;5054417;28;19925;-66
2023/05/03 14:51:07;;;;;;;;;;;;;;;;;;5065788;28;20504;-66
2023/05/03 14:53:32;;;;;;;;;;;;;;;;;;5087880;28;19948;-67
2023/05/03 14:55:58;;;;;;;;;;;;;;;;;;5075395;28;20324;-66
2023/05/03 14:58:23;;;;;;;;;;;;;;;;;;5069481;28;19943;-66
2023/05/03 15:00:48;;;;;;;;;;;;;;;;;;5068853;28;20360;-67
2023/05/03 15:03:14;;;;;;;;;;;;;;;;;;5080647;28;20213;-65
2023/05/03 15:05:40;;;;;;;;;;;;;;;;;;5089939;28;20270;-63
2023/05/03 15:08:06;;;;;;;;;;;;;;;;;;5065520;28;19921;-64
2023/05/03 15:10:31;;;;;;;;;;;;;;;;;;5061061;28;19917;-63
2023/05/03 15:12:56;;;;;;;;;;;;;;;;;;5065720;28;19924;-62
2023/05/03 15:15:22;;;;;;;;;;;;;;;;;;5065550;28;19964;-63
2023/05/03 15:17:47;;;;;;;;;;;;;;;;;;5054971;28;19924;-61
2023/05/03 15:20:14;;;;;;;;;;;;;;;;;;5049567;28;19917;-63
2023/05/03 15:22:40;;;;;;;;;;;;;;;;;;5051063;28;19929;-62
2023/05/03 15:25:05;;;;;;;;;;;;;;;;;;5052324;28;19916;-62
2023/05/03 15:27:30;;;;;;;;;;;;;;;;;;5053331;28;20007;-62
2023/05/03 15:29:56;;;;;;;;;;;;;;;;;;5053698;28;19959;-61
2023/05/03 15:32:21;;;;;;;;;;;;;;;;;;5051487;28;20382;-63
2023/05/03 15:34:46;;;;;;;;;;;;;;;;;;5051979;28;19924;-61
2023/05/03 15:37:12;;;;;;;;;;;;;;;;;;5052803;28;19924;-63
2023/05/03 15:39:37;;;;;;;;;;;;;;;;;;5052226;28;19931;-64
2023/05/03 15:42:03;;;;;;;;;;;;;;;;;;5050390;28;20310;-65
2023/05/03 15:44:28;;;;;;;;;;;;;;;;;;5049899;28;19929;-63
2023/05/03 15:46:53;;;;;;;;;;;;;;;;;;5053171;28;19970;-64
2023/05/03 15:49:19;;;;;;;;;;;;;;;;;;5051489;28;19921;-63
2023/05/03 15:51:45;;;;;;;;;;;;;;;;;;5053286;28;19947;-65
2023/05/03 15:54:10;;;;;;;;;;;;;;;;;;5052105;28;19929;-64
2023/05/03 15:56:36;;;;;;;;;;;;;;;;;;5055514;28;19917;-63
2023/05/03 15:59:01;;;;;;;;;;;;;;;;;;5052638;28;19920;-63
2023/05/03 16:01:27;;;;;;;;;;;;;;;;;;5050563;28;19921;-64
2023/05/03 16:03:52;;;;;;;;;;;;;;;;;;5050883;28;20011;-64
2023/05/03 16:06:18;;;;;;;;;;;;;;;;;;5061973;28;19926;-66
2023/05/03 16:08:44;;;;;;;;;;;;;;;;;;5065964;28;19919;-63
2023/05/03 16:11:11;;;;;;;;;;;;;;;;;;5093169;28;20014;-64
2023/05/03 16:13:37;;;;;;;;;;;;;;;;;;5092236;28;19920;-65
2023/05/03 16:16:02;;;;;;;;;;;;;;;;;;5077927;28;19916;-66
2023/05/03 16:18:27;;;;;;;;;;;;;;;;;;5058710;28;19928;-64
2023/05/03 16:20:53;;;;;;;;;;;;;;;;;;5050882;28;19916;-64
2023/05/03 16:23:18;;;;;;;;;;;;;;;;;;5073176;28;19928;-63
2023/05/03 16:25:44;;;;;;;;;;;;;;;;;;5072122;28;19959;-66
2023/05/03 16:28:09;;;;;;;;;;;;;;;;;;5067797;28;19967;-65
2023/05/03 16:30:35;;;;;;;;;;;;;;;;;;5068754;28;19916;-66
2023/05/03 16:33:05;;;;;;;;;;;;;;;;;;5072292;28;19928;-67
2023/05/03 16:35:30;;;;;;;;;;;;;;;;;;5052749;28;19916;-65